Time;durP1;ratioP1;P1;durP2;ratioP2;P2;SDS_P1;SDS_P2;PMS_P1;PMS_P2;Temp;Humidity;BMP_temperature;BMP_pressure;BME280_temperature;BME280_humidity;BME280_pressure;Samples;Min_cycle;Max_cycle;Signal;HPM_P1;HPM_P2
2023/03/21 00:01:12;;;;;;;16.73;9.57;;;;;;;9.48;100.00;101622.38;5053326;28;20449;-83
2023/03/21 00:03:38;;;;;;;17.30;9.07;;;;;;;9.45;100.00;101626.66;5035359;28;20037;-82
2023/03/21 00:06:08;;;;;;;16.55;9.52;;;;;;;9.34;100.00;101610.56;5053463;28;20033;-83
2023/03/21 00:08:34;;;;;;;15.95;9.23;;;;;;;9.38;100.00;101620.34;5052818;28;20055;-83
2023/03/21 00:11:05;;;;;;;17.67;9.27;;;;;;;9.34;100.00;101613.19;5035393;28;20045;-83
2023/03/21 00:13:31;;;;;;;20.27;9.45;;;;;;;9.32;100.00;101620.16;5053252;28;20033;-82
2023/03/21 00:16:06;;;;;;;17.98;9.82;;;;;;;9.26;100.00;101604.16;5035358;28;20025;-82
2023/03/21 00:18:31;;;;;;;18.00;9.60;;;;;;;9.26;100.00;101605.06;5052634;28;20388;-83
2023/03/21 00:20:59;;;;;;;18.90;9.93;;;;;;;9.00;100.00;101567.41;5053284;28;20179;-82
2023/03/21 00:23:25;;;;;;;16.80;9.13;;;;;;;9.26;100.00;101604.16;5053183;28;20033;-82
2023/03/21 00:25:51;;;;;;;16.30;9.02;;;;;;;9.28;100.00;101608.63;5053062;28;20025;-82
2023/03/21 00:28:16;;;;;;;20.02;9.13;;;;;;;9.28;100.00;101602.44;5021774;28;20029;-83
2023/03/21 00:30:42;;;;;;;17.17;9.38;;;;;;;9.27;100.00;101596.28;5056778;28;20032;-83
2023/03/21 00:33:07;;;;;;;17.15;9.45;;;;;;;9.32;100.00;101595.53;5039049;28;20376;-83
2023/03/21 00:35:32;;;;;;;19.30;9.43;;;;;;;9.23;100.00;101573.31;5039092;28;20029;-83
2023/03/21 00:37:58;;;;;;;17.55;8.57;;;;;;;9.28;100.00;101578.72;5039172;28;20112;-83
2023/03/21 00:40:23;;;;;;;16.80;9.48;;;;;;;9.34;100.00;101581.53;5056608;28;20108;-83
2023/03/21 00:42:49;;;;;;;15.93;9.13;;;;;;;9.07;100.00;101536.81;5038784;28;20037;-83
2023/03/21 00:45:18;;;;;;;15.13;8.95;;;;;;;9.30;100.00;101561.22;5056475;28;20032;-83
2023/03/21 00:47:43;;;;;;;14.80;8.48;;;;;;;9.36;100.00;101571.91;5056329;28;20079;-82
2023/03/21 00:50:10;;;;;;;18.08;8.73;;;;;;;9.38;100.00;101564.03;5038714;28;20025;-83
2023/03/21 00:52:37;;;;;;;15.35;8.65;;;;;;;9.43;100.00;101573.88;5038813;28;20064;-83
2023/03/21 00:55:03;;;;;;;12.82;8.23;;;;;;;9.41;100.00;101574.69;5038744;28;20052;-83
2023/03/21 00:57:28;;;;;;;15.88;8.18;;;;;;;9.33;100.00;101544.56;5056590;28;20033;-83
2023/03/21 00:59:54;;;;;;;15.65;7.65;;;;;;;9.42;100.00;101552.72;5056317;28;20369;-83
2023/03/21 01:02:25;;;;;;;15.32;8.07;;;;;;;9.42;100.00;101553.63;5056357;28;20029;-83
2023/03/21 01:04:54;;;;;;;17.45;8.20;;;;;;;9.43;100.00;101552.78;5018854;28;20124;-83
2023/03/21 01:07:20;;;;;;;17.05;7.65;;;;;;;9.26;100.00;101507.47;5018983;28;20111;-83
2023/03/21 01:09:46;;;;;;;18.77;8.18;;;;;;;9.50;100.00;101552.06;5018289;28;20477;-83
2023/03/21 01:12:12;;;;;;;17.15;8.45;;;;;;;9.46;100.00;101533.47;5036106;28;20025;-84
2023/03/21 01:14:37;;;;;;;17.55;8.35;;;;;;;9.49;100.00;101545.00;5018255;28;20037;-83
2023/03/21 01:17:03;;;;;;;15.07;7.32;;;;;;;9.49;100.00;101531.81;5036230;28;20087;-83
2023/03/21 01:19:29;;;;;;;16.13;7.50;;;;;;;9.35;100.00;101500.66;5018442;28;20030;-83
2023/03/21 01:21:55;;;;;;;17.05;7.38;;;;;;;9.56;99.92;101529.34;5036211;28;20446;-83
2023/03/21 01:24:21;;;;;;;15.25;7.30;;;;;;;9.56;99.82;101529.34;5036140;28;20041;-83
2023/03/21 01:26:47;;;;;;;15.70;6.65;;;;;;;9.50;99.14;101507.22;5018213;28;20034;-83
2023/03/21 01:29:12;;;;;;;12.77;7.15;;;;;;;9.59;99.17;101510.94;5035671;28;20028;-83
2023/03/21 01:31:38;;;;;;;15.65;7.38;;;;;;;9.61;99.06;101510.13;5035992;28;20033;-84
2023/03/21 01:34:03;;;;;;;14.60;7.13;;;;;;;9.58;99.06;101511.81;5035928;28;20033;-84
2023/03/21 01:36:29;;;;;;;18.15;7.32;;;;;;;9.58;98.66;101501.25;5035671;28;20106;-83
2023/03/21 01:38:54;;;;;;;16.38;7.70;;;;;;;9.68;98.33;101519.13;5017672;28;20040;-84
2023/03/21 01:41:24;;;;;;;16.17;7.45;;;;;;;9.63;98.13;101513.69;5018177;28;20040;-84
2023/03/21 01:43:51;;;;;;;17.00;7.30;;;;;;;9.66;98.10;101512.91;5035682;28;20500;-83
2023/03/21 01:46:21;;;;;;;15.43;7.10;;;;;;;9.62;98.07;101509.28;5035600;28;20112;-83
2023/03/21 01:48:57;;;;;;;13.85;7.30;;;;;;;9.46;97.85;101483.34;5017981;28;20026;-84
2023/03/21 01:51:25;;;;;;;12.73;6.55;;;;;;;9.61;97.95;101501.34;5035657;28;20021;-83
2023/03/21 01:53:50;;;;;;;14.43;7.07;;;;;;;9.55;97.32;101494.16;5017788;28;20025;-83
2023/03/21 01:56:30;;;;;;;14.95;6.82;;;;;;;9.65;97.42;101508.47;5035627;28;20028;-83
2023/03/21 01:59:16;;;;;;;15.30;6.85;;;;;;;9.64;97.14;101504.94;5017706;28;20044;-83
2023/03/21 02:01:43;;;;;;;13.68;7.13;;;;;;;9.62;97.44;101496.09;5035513;28;20032;-84
2023/03/21 02:04:10;;;;;;;15.48;6.55;;;;;;;9.51;96.99;101481.75;5017890;28;20108;-83
2023/03/21 02:06:43;;;;;;;18.27;6.82;;;;;;;9.62;97.12;101485.53;5035438;28;20025;-83
2023/03/21 02:09:12;;;;;;;15.90;6.80;;;;;;;9.51;97.25;101484.38;5034942;28;20085;-83
2023/03/21 02:11:38;;;;;;;15.93;6.65;;;;;;;9.47;97.49;101477.25;5017628;28;20044;-83
2023/03/21 02:14:04;;;;;;;17.05;7.00;;;;;;;9.53;97.56;101480.03;5001173;28;20030;-83
2023/03/21 02:16:44;;;;;;;12.85;6.72;;;;;;;9.52;97.74;101479.16;5034976;28;20405;-83
2023/03/21 02:19:28;;;;;;;13.75;7.43;;;;;;;9.52;97.62;101473.88;5034898;28;20026;-83
2023/03/21 02:22:02;;;;;;;17.75;7.00;;;;;;;9.52;97.39;101480.91;5017454;28;20026;-83
2023/03/21 02:24:47;;;;;;;16.15;6.82;;;;;;;9.49;98.05;101472.88;5034704;28;20043;-83
2023/03/21 02:27:20;;;;;;;15.07;6.55;;;;;;;9.41;97.86;101448.06;5034940;28;20111;-84
2023/03/21 02:30:08;;;;;;;17.45;7.38;;;;;;;9.50;98.25;101459.72;5035020;28;20044;-84
2023/03/21 02:32:58;;;;;;;11.70;6.70;;;;;;;9.48;97.86;101456.19;5034808;28;20027;-83
2023/03/21 02:35:52;;;;;;;13.85;7.25;;;;;;;9.49;97.51;101457.06;5034903;28;20021;-83
2023/03/21 02:38:50;;;;;;;14.00;6.80;;;;;;;9.43;97.31;101446.38;5034794;28;20048;-84
2023/03/21 02:41:24;;;;;;;15.55;7.28;;;;;;;9.50;97.21;101453.56;5016214;28;20041;-84
2023/03/21 02:44:11;;;;;;;12.98;6.90;;;;;;;9.47;97.61;101449.13;5016860;28;20057;-84
2023/03/21 02:46:47;;;;;;;12.38;7.00;;;;;;;9.47;97.42;101445.59;5034201;28;20079;-83
2023/03/21 02:49:20;;;;;;;14.15;7.20;;;;;;;9.49;97.59;101454.44;5016230;28;20025;-84
2023/03/21 02:51:48;;;;;;;14.98;7.03;;;;;;;9.42;97.87;101437.56;5034618;28;20037;-84
2023/03/21 02:54:18;;;;;;;16.20;7.13;;;;;;;9.48;97.44;101450.00;5034125;28;20034;-83
2023/03/21 02:56:47;;;;;;;16.35;7.18;;;;;;;9.41;97.39;101437.50;5034202;28;20079;-83
2023/03/21 02:59:15;;;;;;;16.20;7.45;;;;;;;9.49;97.72;101441.22;5034600;28;20025;-83
2023/03/21 03:01:41;;;;;;;13.05;7.03;;;;;;;9.35;97.09;101414.53;5034331;28;20029;-83
2023/03/21 03:04:21;;;;;;;14.27;7.70;;;;;;;9.48;97.21;101442.97;5033993;28;20036;-83
2023/03/21 03:06:46;;;;;;;14.10;7.15;;;;;;;9.51;97.11;101443.06;5034292;28;20029;-83
2023/03/21 03:09:26;;;;;;;17.42;7.38;;;;;;;9.46;96.81;101428.88;5033992;28;20037;-83
2023/03/21 03:12:06;;;;;;;12.43;6.93;;;;;;;9.45;97.16;101420.91;5034439;28;20115;-83
2023/03/21 03:14:41;;;;;;;16.90;7.28;;;;;;;9.48;96.88;101428.91;5033764;28;20049;-82
2023/03/21 03:17:26;;;;;;;15.73;7.60;;;;;;;9.42;96.79;101419.09;5033608;28;20499;-83
2023/03/21 03:20:09;;;;;;;13.13;6.78;;;;;;;9.50;96.76;101425.44;5033753;28;20026;-83
2023/03/21 03:22:43;;;;;;;16.88;6.80;;;;;;;9.51;96.95;101421.06;5034043;28;20032;-83
2023/03/21 03:25:14;;;;;;;15.18;6.50;;;;;;;9.51;96.92;101423.72;5016218;28;20025;-83
2023/03/21 03:27:43;;;;;;;16.55;7.47;;;;;;;9.48;97.26;101426.28;5016069;28;20044;-82
2023/03/21 03:30:10;;;;;;;16.63;7.13;;;;;;;9.42;97.36;101408.56;5033804;28;20037;-84
2023/03/21 03:32:43;;;;;;;13.45;6.88;;;;;;;9.46;97.07;101414.78;4999783;28;20380;-82
2023/03/21 03:35:12;;;;;;;13.63;6.97;;;;;;;9.48;97.07;101418.34;5033851;28;20075;-83
2023/03/21 03:37:39;;;;;;;17.83;7.55;;;;;;;9.48;96.94;101416.59;5033972;28;20029;-82
2023/03/21 03:40:13;;;;;;;12.07;6.88;;;;;;;9.46;97.09;101417.41;5033429;28;20030;-82
2023/03/21 03:42:51;;;;;;;14.95;6.38;;;;;;;9.25;97.40;101389.69;5015556;28;20021;-82
2023/03/21 03:45:19;;;;;;;16.90;7.07;;;;;;;9.37;97.86;101406.63;5016052;28;20029;-82
2023/03/21 03:47:58;;;;;;;14.38;6.85;;;;;;;9.39;97.86;101399.66;5015848;28;20386;-83
2023/03/21 03:50:39;;;;;;;15.20;7.00;;;;;;;9.31;97.75;101399.47;5015900;28;20033;-82
2023/03/21 03:53:15;;;;;;;13.55;6.70;;;;;;;9.26;97.67;101387.94;5033496;28;20056;-82
2023/03/21 03:55:41;;;;;;;14.43;7.32;;;;;;;9.39;98.30;101397.91;5016131;28;20028;-82
2023/03/21 03:58:07;;;;;;;16.60;7.15;;;;;;;9.37;97.97;101399.63;5016719;28;20053;-82
2023/03/21 04:00:33;;;;;;;17.05;7.10;;;;;;;9.36;98.25;101394.31;5032989;28;20169;-83
2023/03/21 04:02:58;;;;;;;14.85;6.47;;;;;;;9.24;98.35;101374.69;5033230;28;20082;-82
2023/03/21 04:05:25;;;;;;;16.23;7.40;;;;;;;9.36;98.47;101396.94;5033289;28;20022;-83
2023/03/21 04:07:50;;;;;;;17.83;7.80;;;;;;;9.30;98.72;101391.53;5033499;28;20025;-82
2023/03/21 04:10:17;;;;;;;14.02;6.72;;;;;;;9.36;98.44;101404.88;5032989;28;20057;-82
2023/03/21 04:12:42;;;;;;;16.45;7.43;;;;;;;9.31;98.54;101388.94;5033131;28;20084;-82
2023/03/21 04:15:08;;;;;;;17.10;7.43;;;;;;;9.30;98.66;101387.16;5015771;28;20111;-82
2023/03/21 04:17:34;;;;;;;14.35;7.05;;;;;;;9.31;98.86;101399.47;5015461;28;20151;-82
2023/03/21 04:19:59;;;;;;;16.40;7.65;;;;;;;9.33;98.46;101397.75;5033278;28;20422;-82
2023/03/21 04:22:25;;;;;;;19.42;7.18;;;;;;;9.26;98.35;101378.28;5033190;28;20033;-82
2023/03/21 04:24:52;;;;;;;13.18;7.55;;;;;;;9.32;98.42;101388.06;5015796;28;20535;-82
2023/03/21 04:27:19;;;;;;;15.07;7.28;;;;;;;9.27;98.68;101384.44;5032765;28;20489;-82
2023/03/21 04:29:44;;;;;;;17.67;9.00;;;;;;;9.24;97.74;101374.69;5015425;28;20034;-82
2023/03/21 04:32:18;;;;;;;17.60;7.53;;;;;;;9.19;98.08;101364.88;5032852;28;20036;-82
2023/03/21 04:34:48;;;;;;;19.30;7.75;;;;;;;9.31;98.12;101382.75;5016699;28;20079;-82
2023/03/21 04:37:18;;;;;;;16.95;7.55;;;;;;;9.30;97.73;101387.16;5033003;28;20026;-82
2023/03/21 04:39:45;;;;;;;18.25;8.15;;;;;;;9.24;97.83;101360.63;5033137;28;20030;-82
2023/03/21 04:42:13;;;;;;;18.42;7.55;;;;;;;9.27;97.54;101381.78;5033037;28;20044;-82
2023/03/21 04:44:39;;;;;;;14.55;7.45;;;;;;;9.27;97.29;101369.50;5032967;28;20040;-82
2023/03/21 04:47:05;;;;;;;19.08;7.53;;;;;;;9.32;97.25;101371.34;5015106;28;20076;-82
2023/03/21 04:49:30;;;;;;;18.70;7.55;;;;;;;9.27;97.15;101366.84;5033137;28;20407;-82
2023/03/21 04:51:56;;;;;;;15.38;7.82;;;;;;;9.15;97.43;101348.09;5015547;28;20104;-82
2023/03/21 04:54:21;;;;;;;20.33;7.82;;;;;;;9.30;96.59;101363.41;4998789;28;20367;-82
2023/03/21 04:56:47;;;;;;;19.60;8.15;;;;;;;9.27;97.31;101356.31;5015269;28;20063;-82
2023/03/21 04:59:14;;;;;;;16.20;7.15;;;;;;;9.29;96.50;101364.25;5032867;28;20094;-82
2023/03/21 05:01:42;;;;;;;15.88;7.00;;;;;;;9.33;96.68;101358.19;5033018;28;20029;-82
2023/03/21 05:04:08;;;;;;;16.60;7.43;;;;;;;9.17;96.36;101330.59;5032743;28;20112;-82
2023/03/21 05:06:34;;;;;;;15.45;7.32;;;;;;;9.37;96.34;101359.16;5032558;28;20079;-82
2023/03/21 05:09:05;;;;;;;14.35;6.68;;;;;;;9.37;96.16;101364.44;5014992;28;20049;-82
2023/03/21 05:11:34;;;;;;;17.30;7.35;;;;;;;9.36;95.94;101357.38;5032701;28;20112;-82
2023/03/21 05:14:00;;;;;;;20.17;7.45;;;;;;;9.38;95.54;101355.66;5001101;28;20354;-83
2023/03/21 05:16:29;;;;;;;17.17;7.25;;;;;;;9.40;95.72;101346.94;5036105;28;20048;-82
2023/03/21 05:18:55;;;;;;;14.18;6.88;;;;;;;9.38;95.69;101346.03;5036030;28;20036;-82
2023/03/21 05:21:21;;;;;;;15.07;7.15;;;;;;;9.40;95.64;101354.84;5018538;28;20025;-81
2023/03/21 05:23:53;;;;;;;15.60;6.80;;;;;;;9.39;95.33;101350.44;5036146;28;20021;-82
2023/03/21 05:26:23;;;;;;;13.43;6.37;;;;;;;9.34;95.47;101333.63;5036221;28;20442;-82
2023/03/21 05:28:48;;;;;;;16.92;6.90;;;;;;;9.32;95.45;101337.06;5018283;28;20025;-82
2023/03/21 05:31:15;;;;;;;13.65;7.35;;;;;;;9.39;95.83;101350.44;5036039;28;20454;-82
2023/03/21 05:33:42;;;;;;;18.35;7.07;;;;;;;9.39;96.14;101352.19;5018562;28;20033;-82
2023/03/21 05:36:08;;;;;;;14.70;6.90;;;;;;;9.32;95.90;101335.31;5035997;28;20033;-82
2023/03/21 05:38:34;;;;;;;13.43;6.53;;;;;;;9.18;95.71;101319.19;5018270;28;20037;-82
2023/03/21 05:40:59;;;;;;;20.25;6.70;;;;;;;9.36;95.86;101339.81;5035622;28;20034;-82
2023/03/21 05:43:25;;;;;;;14.50;6.72;;;;;;;9.39;95.12;101345.16;5001930;28;20476;-82
2023/03/21 05:45:51;;;;;;;16.23;6.35;;;;;;;9.43;95.44;101347.03;5018068;28;20036;-82
2023/03/21 05:48:16;;;;;;;18.27;6.90;;;;;;;9.45;95.49;101357.59;5035548;28;20025;-82
2023/03/21 05:50:42;;;;;;;13.80;6.25;;;;;;;9.45;95.53;101352.31;5035569;28;20084;-82
2023/03/21 05:53:07;;;;;;;16.35;6.78;;;;;;;9.46;95.54;101351.47;5035458;28;20544;-83
2023/03/21 05:55:33;;;;;;;16.90;6.35;;;;;;;9.42;95.23;101337.34;5035772;28;20034;-83
2023/03/21 05:57:58;;;;;;;18.55;6.63;;;;;;;9.21;95.77;101294.66;5035405;28;20112;-82
2023/03/21 06:00:23;;;;;;;17.95;6.93;;;;;;;9.46;95.49;101341.84;5016979;28;20056;-83
2023/03/21 06:02:49;;;;;;;13.00;6.43;;;;;;;9.48;95.11;101344.50;5034917;28;20048;-83
2023/03/21 06:05:15;;;;;;;13.80;6.63;;;;;;;9.45;95.40;101344.41;5016943;28;20124;-83
2023/03/21 06:07:40;;;;;;;11.00;6.05;;;;;;;9.46;95.51;101349.75;5017083;28;20056;-83
2023/03/21 06:10:06;;;;;;;16.70;6.32;;;;;;;9.48;95.31;101347.13;5016443;28;20049;-83
2023/03/21 06:12:32;;;;;;;13.50;6.22;;;;;;;9.38;95.29;101326.66;5034723;28;20034;-83
2023/03/21 06:14:58;;;;;;;11.73;6.30;;;;;;;9.36;95.35;101318.72;5034479;28;20466;-83
2023/03/21 06:17:24;;;;;;;12.90;6.25;;;;;;;9.47;95.12;101340.97;5034145;28;20091;-83
2023/03/21 06:19:49;;;;;;;11.02;6.13;;;;;;;9.34;94.92;101311.63;5034555;28;20351;-83
2023/03/21 06:22:15;;;;;;;12.43;5.70;;;;;;;9.54;94.81;101353.41;5034455;28;20079;-83
2023/03/21 06:24:40;;;;;;;14.18;6.00;;;;;;;9.47;94.82;101329.53;5034531;28;20045;-82
2023/03/21 06:27:05;;;;;;;13.95;5.72;;;;;;;9.54;94.42;101344.63;5034480;28;20030;-82
2023/03/21 06:29:31;;;;;;;17.65;5.88;;;;;;;9.59;94.51;101352.63;5034465;28;20021;-83
2023/03/21 06:31:56;;;;;;;13.88;5.68;;;;;;;9.54;94.80;101344.63;5033987;28;20422;-82
2023/03/21 06:34:22;;;;;;;10.98;5.20;;;;;;;9.59;94.52;101353.53;5016746;28;20045;-83
2023/03/21 06:36:47;;;;;;;15.05;5.85;;;;;;;9.60;94.16;101350.06;5016346;28;20120;-82
2023/03/21 06:39:14;;;;;;;13.57;5.15;;;;;;;9.66;94.38;101362.50;5033922;28;20062;-82
2023/03/21 06:41:40;;;;;;;17.08;5.30;;;;;;;9.49;93.91;101322.53;5000226;28;20033;-83
2023/03/21 06:44:05;;;;;;;15.90;5.22;;;;;;;9.72;93.77;101358.25;5016219;28;20026;-82
2023/03/21 06:46:31;;;;;;;13.05;5.22;;;;;;;9.67;94.25;101353.72;5033972;28;20449;-82
2023/03/21 06:48:56;;;;;;;15.65;5.38;;;;;;;9.75;94.34;101360.94;5015941;28;20080;-83
2023/03/21 06:51:22;;;;;;;12.48;5.43;;;;;;;9.80;94.72;101355.75;5034052;28;20060;-83
2023/03/21 06:53:47;;;;;;;12.30;5.03;;;;;;;9.84;94.63;101359.34;5016096;28;20087;-83
2023/03/21 06:56:14;;;;;;;14.23;5.35;;;;;;;9.75;95.31;101357.41;5034092;28;20025;-83
2023/03/21 06:58:39;;;;;;;14.45;5.85;;;;;;;9.78;95.77;101352.22;5033345;28;20129;-83
2023/03/21 07:01:05;;;;;;;12.23;5.43;;;;;;;9.68;96.43;101337.03;5016206;28;20068;-84
2023/03/21 07:03:31;;;;;;;11.85;5.05;;;;;;;9.81;96.51;101362.84;5033443;28;20095;-84
2023/03/21 07:05:57;;;;;;;17.42;5.50;;;;;;;9.77;97.45;101356.59;5033521;28;20029;-83
2023/03/21 07:08:23;;;;;;;14.30;5.65;;;;;;;9.78;97.76;101365.41;5033414;28;20034;-82
2023/03/21 07:10:49;;;;;;;14.35;5.50;;;;;;;9.73;98.43;101360.03;5033572;28;20110;-84
2023/03/21 07:13:15;;;;;;;15.73;5.90;;;;;;;9.76;98.58;101369.75;5033556;28;20047;-84
2023/03/21 07:15:40;;;;;;;14.30;5.57;;;;;;;9.48;98.79;101324.28;5033387;28;20017;-83
2023/03/21 07:18:08;;;;;;;12.85;4.97;;;;;;;9.70;99.48;101370.50;5033426;28;20030;-84
2023/03/21 07:20:34;;;;;;;14.95;5.70;;;;;;;9.72;99.54;101382.00;5033075;28;20434;-83
2023/03/21 07:23:00;;;;;;;12.60;5.72;;;;;;;9.62;99.48;101368.53;5033692;28;20037;-84
2023/03/21 07:25:26;;;;;;;16.25;6.15;;;;;;;9.72;99.94;101378.44;5015459;28;20026;-83
2023/03/21 07:27:51;;;;;;;18.35;6.50;;;;;;;9.71;100.00;101379.31;5016126;28;20033;-83
2023/03/21 07:30:17;;;;;;;13.57;5.70;;;;;;;9.67;100.00;101370.44;5015598;28;20039;-83
2023/03/21 07:32:44;;;;;;;16.83;6.30;;;;;;;9.71;100.00;101380.19;5033149;28;20101;-84
2023/03/21 07:35:11;;;;;;;10.65;5.85;;;;;;;9.72;100.00;101386.34;5033178;28;20040;-86
2023/03/21 07:37:37;;;;;;;15.07;6.63;;;;;;;9.58;100.00;101351.75;5015418;28;20037;-85
2023/03/21 07:40:08;;;;;;;16.40;6.10;;;;;;;9.74;100.00;101387.31;5033413;28;20030;-85
2023/03/21 07:42:34;;;;;;;16.10;6.45;;;;;;;9.70;100.00;101370.50;5015434;28;20113;-86
2023/03/21 07:44:59;;;;;;;15.80;6.85;;;;;;;9.73;100.00;101378.50;5015627;28;20116;-86
2023/03/21 07:47:25;;;;;;;15.60;6.57;;;;;;;9.75;100.00;101382.03;5014910;28;20585;-84
2023/03/21 07:49:50;;;;;;;16.30;6.78;;;;;;;9.73;100.00;101370.59;5032830;28;20025;-83
2023/03/21 07:52:15;;;;;;;16.33;6.47;;;;;;;9.61;100.00;101354.47;5032762;28;20351;-84
2023/03/21 07:54:41;;;;;;;19.02;6.68;;;;;;;9.62;100.00;101350.06;4999059;28;20029;-83
2023/03/21 07:57:06;;;;;;;15.00;6.70;;;;;;;9.69;100.00;101368.72;5015683;28;20030;-84
2023/03/21 07:59:32;;;;;;;16.58;6.95;;;;;;;9.68;100.00;101364.31;5014775;28;20053;-84
2023/03/21 08:01:57;;;;;;;15.00;6.78;;;;;;;9.68;100.00;101364.31;5032974;28;20046;-83
2023/03/21 08:04:23;;;;;;;16.20;7.05;;;;;;;9.66;100.00;101362.50;5014960;28;20033;-84
2023/03/21 08:06:49;;;;;;;14.35;7.60;;;;;;;9.54;100.00;101328.78;5032795;28;20108;-85
2023/03/21 08:09:15;;;;;;;13.30;7.30;;;;;;;9.66;100.00;101350.19;5032590;28;20093;-84
2023/03/21 08:11:40;;;;;;;17.98;7.22;;;;;;;9.72;100.00;101347.69;5032828;28;20500;-83
2023/03/21 08:14:06;;;;;;;15.95;7.47;;;;;;;9.72;100.00;101338.84;5032481;28;20430;-84
2023/03/21 08:16:31;;;;;;;14.85;6.75;;;;;;;9.72;100.00;101331.88;5032275;28;20121;-84
2023/03/21 08:18:59;;;;;;;14.70;7.20;;;;;;;9.68;100.00;101322.09;5016128;28;20140;-90
2023/03/21 08:21:25;;;;;;;15.75;7.40;;;;;;;9.83;100.00;101336.47;5016389;28;20036;-89
2023/03/21 08:23:52;;;;;;;17.77;8.20;;;;;;;9.84;100.00;101331.22;5015615;28;20033;-83
2023/03/21 08:26:18;;;;;;;17.80;7.95;;;;;;;9.84;100.00;101325.03;5032568;28;20080;-82
2023/03/21 08:28:44;;;;;;;13.90;7.47;;;;;;;9.86;100.00;101320.72;5014887;28;20475;-81
2023/03/21 08:31:12;;;;;;;17.05;8.20;;;;;;;9.83;100.00;101307.44;5032190;28;20376;-84
2023/03/21 08:33:38;;;;;;;16.33;6.97;;;;;;;9.87;100.00;101323.38;5032847;28;20030;-84
2023/03/21 08:36:04;;;;;;;20.70;7.82;;;;;;;9.88;100.00;101314.59;5014959;28;20083;-84
2023/03/21 08:38:32;;;;;;;17.63;7.63;;;;;;;9.79;100.00;101291.53;5032905;28;20025;-84
2023/03/21 08:40:59;;;;;;;14.55;7.03;;;;;;;9.90;100.00;101320.81;5032486;28;20030;-84
2023/03/21 08:43:25;;;;;;;16.75;6.85;;;;;;;9.89;100.00;101318.09;5032234;28;20040;-84
2023/03/21 08:45:51;;;;;;;12.38;6.55;;;;;;;9.91;100.00;101317.28;5015924;28;20457;-85
2023/03/21 08:48:16;;;;;;;16.05;6.50;;;;;;;9.92;100.00;101318.19;5033775;28;20028;-85
2023/03/21 08:50:42;;;;;;;11.68;5.72;;;;;;;9.93;100.00;101312.03;5019354;28;20179;-85
2023/03/21 08:53:07;;;;;;;14.32;6.18;;;;;;;9.91;100.00;101319.94;5036625;28;20064;-85
2023/03/21 08:55:33;;;;;;;11.68;6.00;;;;;;;9.96;100.00;101318.28;5018415;28;20140;-85
2023/03/21 08:57:59;;;;;;;14.90;6.45;;;;;;;9.97;100.00;101305.97;5035919;28;20454;-85
2023/03/21 09:00:26;;;;;;;12.45;5.97;;;;;;;9.95;100.00;101295.38;5036232;28;20029;-85
2023/03/21 09:02:53;;;;;;;13.65;5.85;;;;;;;9.88;100.00;101284.66;5036202;28;20116;-84
2023/03/21 09:05:20;;;;;;;14.38;6.38;;;;;;;10.01;100.00;101295.50;5018638;28;20033;-85
2023/03/21 09:07:45;;;;;;;13.10;5.63;;;;;;;9.97;100.00;101284.84;5035554;28;20025;-85
2023/03/21 09:10:14;;;;;;;12.65;5.70;;;;;;;10.06;100.00;101294.69;5035707;28;20048;-85
2023/03/21 09:12:40;;;;;;;17.17;6.68;;;;;;;10.07;100.00;101300.03;5018024;28;20536;-85
2023/03/21 09:15:07;;;;;;;12.35;5.95;;;;;;;10.10;100.00;101300.06;5018016;28;20068;-85
2023/03/21 09:17:32;;;;;;;15.45;5.93;;;;;;;9.98;100.00;101276.09;5035878;28;20175;-85
2023/03/21 09:19:59;;;;;;;16.58;6.35;;;;;;;10.06;100.00;101290.31;5035885;28;20029;-84
2023/03/21 09:22:26;;;;;;;14.02;6.22;;;;;;;10.09;100.00;101271.00;5035753;28;20037;-84
2023/03/21 09:24:52;;;;;;;13.57;6.65;;;;;;;10.09;100.00;101268.38;5036007;28;20115;-84
2023/03/21 09:27:21;;;;;;;11.38;5.28;;;;;;;10.25;100.00;101288.97;5035621;28;20033;-84
2023/03/21 09:29:49;;;;;;;16.58;6.25;;;;;;;10.24;99.86;101284.53;5035406;28;20032;-84
2023/03/21 09:32:17;;;;;;;14.45;6.43;;;;;;;10.21;100.00;101280.06;5001036;28;20091;-85
2023/03/21 09:34:43;;;;;;;13.32;6.25;;;;;;;10.21;100.00;101280.06;5035042;28;20462;-84
2023/03/21 09:37:11;;;;;;;14.40;6.25;;;;;;;10.31;100.00;101286.44;5034953;28;20033;-84
2023/03/21 09:39:39;;;;;;;12.88;6.30;;;;;;;10.28;99.55;101284.63;5035165;28;20028;-84
2023/03/21 09:42:23;;;;;;;12.65;5.80;;;;;;;10.34;99.43;101285.59;5035184;28;20033;-84
2023/03/21 09:45:15;;;;;;;15.23;6.10;;;;;;;10.24;98.66;101259.03;5035277;28;20056;-84
2023/03/21 09:47:52;;;;;;;16.00;5.78;;;;;;;10.36;98.61;101279.47;5017034;28;20124;-84
2023/03/21 09:50:25;;;;;;;9.00;5.18;;;;;;;10.28;98.06;101263.50;5017499;28;20030;-84
2023/03/21 09:52:59;;;;;;;24.45;6.78;;;;;;;10.39;97.78;101276.91;5034844;28;20064;-84
2023/03/21 09:55:37;;;;;;;11.70;6.13;;;;;;;10.39;98.17;101260.16;5035458;28;20025;-84
2023/03/21 09:58:14;;;;;;;13.57;5.60;;;;;;;10.45;98.63;101274.38;5034621;28;20362;-85
2023/03/21 10:00:46;;;;;;;9.70;5.60;;;;;;;10.46;98.71;101260.31;5034904;28;20370;-84
2023/03/21 10:03:25;;;;;;;12.65;5.40;;;;;;;10.46;98.23;101243.56;5034710;28;20369;-83
2023/03/21 10:05:59;;;;;;;12.60;5.50;;;;;;;10.56;96.50;101241.97;5018112;28;20078;-84
2023/03/21 10:08:35;;;;;;;13.68;5.75;;;;;;;10.61;96.96;101258.78;5017169;28;20026;-84
2023/03/21 10:11:12;;;;;;;14.57;5.38;;;;;;;10.65;97.03;101245.66;5035170;28;20200;-84
2023/03/21 10:13:49;;;;;;;12.32;5.88;;;;;;;10.66;97.06;101238.59;5034467;28;20441;-83
2023/03/21 10:16:20;;;;;;;13.32;5.40;;;;;;;10.68;96.37;101240.41;5034676;28;20474;-83
2023/03/21 10:18:47;;;;;;;12.85;5.68;;;;;;;10.60;95.89;101212.97;5034473;28;20060;-83
2023/03/21 10:21:21;;;;;;;13.07;5.32;;;;;;;10.78;95.76;101238.81;5017191;28;20030;-83
2023/03/21 10:23:48;;;;;;;10.07;5.45;;;;;;;10.81;95.36;101230.06;5034601;28;20104;-83
2023/03/21 10:26:13;;;;;;;11.95;5.30;;;;;;;10.88;94.57;101253.97;5016632;28;20033;-83
2023/03/21 10:28:40;;;;;;;12.40;5.40;;;;;;;10.93;93.85;101249.63;5034350;28;20025;-82
2023/03/21 10:31:10;;;;;;;11.48;4.70;;;;;;;10.87;92.20;101236.31;5033950;28;20133;-82
2023/03/21 10:33:38;;;;;;;13.98;4.80;;;;;;;10.97;92.53;101230.31;5034461;28;20116;-83
2023/03/21 10:36:25;;;;;;;10.38;5.20;;;;;;;11.11;93.06;101234.91;5034253;28;20022;-82
2023/03/21 10:39:03;;;;;;;11.05;4.85;;;;;;;11.12;93.89;101220.81;5034493;28;20028;-83
2023/03/21 10:41:29;;;;;;;14.10;5.22;;;;;;;11.23;92.39;101230.69;5034290;28;20056;-83
2023/03/21 10:44:11;;;;;;;11.50;4.63;;;;;;;11.35;91.74;101232.63;5034259;28;20057;-83
2023/03/21 10:46:37;;;;;;;12.18;4.70;;;;;;;11.45;89.74;101228.34;5016070;28;20024;-83
2023/03/21 10:49:06;;;;;;;10.88;4.57;;;;;;;11.42;89.33;101217.72;5034543;28;20095;-83
2023/03/21 10:51:36;;;;;;;11.50;4.82;;;;;;;11.57;89.02;101252.34;5033953;28;20025;-83
2023/03/21 10:54:07;;;;;;;9.40;4.55;;;;;;;11.61;88.91;101237.38;5033658;28;20065;-83
2023/03/21 10:56:39;;;;;;;9.93;4.70;;;;;;;11.65;87.69;101237.44;5033912;28;20026;-83
2023/03/21 10:59:07;;;;;;;9.77;4.80;;;;;;;11.70;87.86;101241.03;5034028;28;20116;-83
2023/03/21 11:01:42;;;;;;;11.45;5.00;;;;;;;11.66;87.68;101228.63;5034120;28;20342;-84
2023/03/21 11:04:20;;;;;;;10.45;4.75;;;;;;;11.72;87.28;101217.22;5033784;28;20028;-84
2023/03/21 11:06:53;;;;;;;9.98;4.43;;;;;;;11.86;87.27;101228.91;5016163;28;20025;-84
2023/03/21 11:09:23;;;;;;;9.52;4.57;;;;;;;11.94;87.74;101226.31;5033408;28;20025;-83
2023/03/21 11:12:01;;;;;;;10.30;4.47;;;;;;;12.07;86.47;101219.41;5032993;28;20029;-83
2023/03/21 11:14:37;;;;;;;8.38;4.50;;;;;;;12.16;85.27;101223.06;5033071;28;20365;-83
2023/03/21 11:17:18;;;;;;;11.43;4.22;;;;;;;12.19;84.14;101232.78;5015680;28;20108;-84
2023/03/21 11:19:57;;;;;;;10.63;4.78;;;;;;;12.20;85.17;101221.28;5033431;28;20022;-84
2023/03/21 11:22:29;;;;;;;9.60;4.72;;;;;;;12.26;82.75;101224.91;5033568;28;20472;-83
2023/03/21 11:25:00;;;;;;;11.60;4.65;;;;;;;12.25;81.58;101231.09;5033599;28;20032;-84
2023/03/21 11:27:28;;;;;;;10.23;4.57;;;;;;;12.25;81.81;101231.09;5015816;28;20469;-84
2023/03/21 11:29:56;;;;;;;11.15;4.30;;;;;;;12.26;82.10;101239.91;5033250;28;20020;-84